M I D A S
Marine Information and Data Acquisition System
Tripno 682 of the Zeeleeuw from 2004-04-05 07:58:26 to 2004-04-05 12:58:35
Back to CruiseResearch ActivitiesStationsMapUnderway DataData graphs

EquipmentUnitsComment
TimeDGPSUTC
LatitudeDGPSDM.mWGS84
LongitudeDGPSDM.mWGS84
HeadingGyrodeg 
SOGDGPSknotsSpeed over ground
COGDGPSdegCourse over ground
DepthEcho soundermeters200 kHz
Missing or incorrect values are displayed as -999
Navigation data collected by the RV Zeeleeuw from 2004-04-05 07:58:26 to 2004-04-05 12:58:35
Time Latitude Longitude Heading SOG COG Depth
2004-04-05 07:59:29 51°13.596 2°56.097 117.9 0.1 197 6.4
2004-04-05 08:00:29 51°13.612 2°56.048 117.5 3.4 296 -999
2004-04-05 08:01:29 51°13.64 2°55.95 122.2 4.6 298 -999
2004-04-05 08:02:29 51°13.674 2°55.837 110.8 4.5 290 -999
2004-04-05 08:03:29 51°13.685 2°55.778 83.4 0.5 44 12.2
2004-04-05 08:04:29 51°13.677 2°55.761 55.3 0.8 242 -999
2004-04-05 08:05:27 51°13.728 2°55.742 329.1 4.5 323 9.6
2004-04-05 08:06:29 51°13.813 2°55.645 332.4 7.1 328 9.3
2004-04-05 08:07:33 51°13.939 2°55.551 340.9 8.1 336 8.9
2004-04-05 08:08:33 51°14.064 2°55.462 340.5 8.4 336 10.2
2004-04-05 08:09:33 51°14.205 2°55.339 330.4 10.2 323 10.4
2004-04-05 08:10:33 51°14.33 2°55.137 317.8 11.2 313 10.4
2004-04-05 08:11:33 51°14.429 2°54.887 295 11.3 284 9.9
2004-04-05 08:12:33 51°14.401 2°54.576 253.1 12.7 247 9.7
2004-04-05 08:13:33 51°14.307 2°54.259 249.6 13.6 244 8.5
2004-04-05 08:14:33 51°14.209 2°53.927 249.9 13.9 245 8.2
2004-04-05 08:15:33 51°14.109 2°53.59 250.5 14.1 243 8.5
2004-04-05 08:16:33 51°14.009 2°53.253 251.4 14 244 8.8
2004-04-05 08:17:33 51°13.91 2°52.912 251 14.2 246 9.5
2004-04-05 08:18:33 51°13.784 2°52.592 241.7 14.3 237 9.5
2004-04-05 08:19:33 51°13.656 2°52.276 242.7 14.1 237 9.8
2004-04-05 08:20:33 51°13.529 2°51.961 243.2 14.1 237 9.8
2004-04-05 08:21:33 51°13.401 2°51.646 243.2 14.2 238 10.1
2004-04-05 08:22:33 51°13.28 2°51.33 246.4 14.1 241 10
2004-04-05 08:23:33 51°13.167 2°51.007 247.9 13.8 242 9.9
2004-04-05 08:24:33 51°13.056 2°50.683 247.1 13.9 241 10.1
2004-04-05 08:25:33 51°12.945 2°50.358 247.2 14.1 243 10.3
2004-04-05 08:26:33 51°12.833 2°50.036 247 14.1 241 10.4
2004-04-05 08:27:33 51°12.721 2°49.713 247.2 13.9 239 10.4
2004-04-05 08:28:33 51°12.61 2°49.383 247.8 14.2 242 10.7
2004-04-05 08:29:33 51°12.498 2°49.054 247.8 14 241 10.6
2004-04-05 08:30:33 51°12.387 2°48.722 247.7 14.1 242 10.6
2004-04-05 08:31:33 51°12.276 2°48.391 247 14.1 242 11
2004-04-05 08:32:33 51°12.164 2°48.06 247.1 14.2 242 11.2
2004-04-05 08:33:33 51°12.052 2°47.727 246.4 14.3 241 10.9
2004-04-05 08:34:33 51°11.941 2°47.395 247.4 14.2 242 11
2004-04-05 08:35:33 51°11.842 2°47.053 254.5 14.2 249 11
2004-04-05 08:36:33 51°11.756 2°46.699 254.9 14.2 249 11.3
2004-04-05 08:37:33 51°11.671 2°46.347 254.7 14.3 249 11.6
2004-04-05 08:38:33 51°11.585 2°45.994 255.3 14.2 249 11.5
2004-04-05 08:39:33 51°11.499 2°45.645 254.3 14.2 250 11.5
2004-04-05 08:40:33 51°11.413 2°45.295 254.9 14.3 248 11.6
2004-04-05 08:41:33 51°11.328 2°44.939 254.3 14.3 249 11.5
2004-04-05 08:42:34 51°11.24 2°44.58 254.7 14.2 248 11.4
2004-04-05 08:43:33 51°11.157 2°44.233 254 14.3 249 11.6
2004-04-05 08:44:33 51°11.073 2°43.88 254.6 14.3 250 11.5
2004-04-05 08:45:33 51°10.988 2°43.527 254.6 14.2 249 11.4
2004-04-05 08:46:33 51°10.904 2°43.176 254 14.2 249 11.5
2004-04-05 08:47:33 51°10.821 2°42.824 254.6 14.2 250 11.4
2004-04-05 08:48:33 51°10.738 2°42.474 254.6 14.1 250 11.5
2004-04-05 08:49:33 51°10.656 2°42.125 254.5 14.1 250 11.4
2004-04-05 08:50:33 51°10.574 2°41.776 254.4 13.9 249 11.4
2004-04-05 08:51:33 51°10.493 2°41.43 254 14 249 11.5
2004-04-05 08:52:33 51°10.412 2°41.083 254.7 13.9 249 11.4
2004-04-05 08:53:33 51°10.332 2°40.737 254.2 13.9 251 11.6
2004-04-05 08:54:33 51°10.245 2°40.395 250.4 13.9 247 11.7
2004-04-05 08:55:33 51°10.155 2°40.055 251.5 13.9 247 11.7
2004-04-05 08:56:33 51°10.064 2°39.713 251.1 14.1 247 11.6
2004-04-05 08:57:34 51°9.971 2°39.368 251.3 13.8 247 11.7
2004-04-05 08:58:33 51°9.882 2°39.034 251.2 14 247 11.9
2004-04-05 08:59:33 51°9.791 2°38.694 251.2 13.9 247 12
2004-04-05 09:00:33 51°9.702 2°38.354 251.4 14 247 12.2
2004-04-05 09:01:33 51°9.611 2°38.011 251.1 14.1 248 12.5
2004-04-05 09:02:33 51°9.521 2°37.669 251.4 14 247 12.7
2004-04-05 09:03:33 51°9.43 2°37.329 251.1 13.9 247 13
2004-04-05 09:04:34 51°9.339 2°36.983 251.8 14 247 13.5
2004-04-05 09:05:33 51°9.242 2°36.653 246.8 14 244 13.9
2004-04-05 09:06:33 51°9.136 2°36.323 246.7 14 242 14.2
2004-04-05 09:07:33 51°9.036 2°35.987 250.4 14.1 246 14.5
2004-04-05 09:08:33 51°8.942 2°35.648 250.4 14 245 14.9
2004-04-05 09:09:33 51°8.849 2°35.31 250.6 14 247 15.5
2004-04-05 09:10:33 51°8.756 2°34.979 250.4 11.4 246 16
2004-04-05 09:11:33 51°8.722 2°34.795 270.7 4.8 262 16.6
2004-04-05 09:12:33 51°8.717 2°34.704 280.2 2.5 273 16.8
2004-04-05 09:13:33 51°8.719 2°34.654 277.2 1.6 267 16.8
2004-04-05 09:14:33 51°8.703 2°34.616 230.8 2.3 213 16.9
2004-04-05 09:15:33 51°8.655 2°34.578 220.1 3.7 212 16.8
2004-04-05 09:16:33 51°8.605 2°34.516 235.5 3.8 227 16.8
2004-04-05 09:17:33 51°8.567 2°34.436 245.2 3.5 235 16.8
2004-04-05 09:18:33 51°8.535 2°34.363 251.4 3.5 241 16.9
2004-04-05 09:19:33 51°8.507 2°34.28 251.8 3.7 241 17
2004-04-05 09:20:33 51°8.472 2°34.206 243 3.2 232 16.7
2004-04-05 09:21:33 51°8.44 2°34.14 244.6 3.1 232 16.6
2004-04-05 09:22:33 51°8.407 2°34.067 248.5 3.5 234 16.7
2004-04-05 09:23:33 51°8.375 2°33.983 250.4 3.9 240 16.7
2004-04-05 09:24:33 51°8.341 2°33.906 244.5 3.4 231 16.4
2004-04-05 09:25:33 51°8.308 2°33.837 249.2 3.2 234 16.2
2004-04-05 09:26:33 51°8.281 2°33.763 255.4 3.3 240 16.1
2004-04-05 09:27:33 51°8.252 2°33.688 245.5 3.4 234 15.8
2004-04-05 09:28:33 51°8.223 2°33.612 257 3.4 247 16
2004-04-05 09:29:33 51°8.198 2°33.527 252 3.7 242 16.2
2004-04-05 09:30:33 51°8.167 2°33.444 247.9 3.6 237 16
2004-04-05 09:31:33 51°8.136 2°33.361 253.6 3.7 242 15.9
2004-04-05 09:32:33 51°8.111 2°33.276 252.3 3.5 241 16
2004-04-05 09:33:33 51°8.077 2°33.2 243.7 3.4 229 15.6
2004-04-05 09:34:33 51°8.042 2°33.13 248.2 3.3 234 15.3
2004-04-05 09:35:33 51°8.019 2°33.055 262.3 3.1 252 15.4
2004-04-05 09:36:33 51°8.003 2°32.979 254.9 3 245 15.4
2004-04-05 09:37:33 51°7.972 2°32.923 240.7 2.9 226 15.7
2004-04-05 09:38:33 51°7.94 2°32.863 247.5 3.1 234 14.8
2004-04-05 09:39:33 51°7.914 2°32.793 253.9 2.9 242 14.4
2004-04-05 09:40:33 51°7.888 2°32.724 249.5 3.1 238 14.7
2004-04-05 09:41:33 51°7.862 2°32.653 255.1 3.1 242 14.9
2004-04-05 09:42:33 51°7.846 2°32.577 264.8 3 259 14.9
2004-04-05 09:43:33 51°7.834 2°32.501 259 3 250 15.2
2004-04-05 09:44:33 51°7.806 2°32.435 241.6 3.2 228 15
2004-04-05 09:45:33 51°7.775 2°32.373 251.2 2.6 237 14.2
2004-04-05 09:46:33 51°7.769 2°32.31 284.8 2.6 289 15.2
2004-04-05 09:47:33 51°7.806 2°32.261 319.5 3.3 332 15.7
2004-04-05 09:48:33 51°7.859 2°32.218 325.8 3.7 337 16.9
2004-04-05 09:49:33 51°7.916 2°32.185 329.4 3.7 341 18
2004-04-05 09:50:33 51°7.977 2°32.165 344.9 3.9 355 17.7
2004-04-05 09:51:33 51°8.047 2°32.174 3.4 4.5 12 18.5
2004-04-05 09:52:33 51°8.118 2°32.216 21.9 4.7 28 18.6
2004-04-05 09:53:33 51°8.179 2°32.278 26.2 3.7 34 19
2004-04-05 09:54:33 51°8.219 2°32.319 12.4 2.5 36 19.3
2004-04-05 09:55:33 51°8.247 2°32.352 4.6 1.7 39 18.7
2004-04-05 09:56:33 51°8.265 2°32.382 357.8 1.3 43 19.1
2004-04-05 09:57:33 51°8.28 2°32.409 350.5 1.3 56 19.1
2004-04-05 09:58:33 51°8.291 2°32.44 350.5 1.4 65 19.1
2004-04-05 09:59:33 51°8.3 2°32.476 350.5 1.4 66 19.4
2004-04-05 10:00:33 51°8.329 2°32.51 15.9 3 32 19.4
2004-04-05 10:01:33 51°8.37 2°32.585 62.4 4.3 65 19.7
2004-04-05 10:02:33 51°8.367 2°32.693 129.1 3.9 115 19.5
2004-04-05 10:03:33 51°8.326 2°32.766 164.8 3.8 141 18.9
2004-04-05 10:04:33 51°8.271 2°32.829 167.7 4.1 145 18
2004-04-05 10:05:33 51°8.211 2°32.895 167.2 4.6 144 18.5
2004-04-05 10:06:33 51°8.146 2°32.958 178.6 4.3 157 18.1
2004-04-05 10:07:33 51°8.096 2°32.963 227.3 2.1 198 18.1
2004-04-05 10:08:33 51°8.081 2°32.957 247.9 0.4 137 17.9
2004-04-05 10:09:33 51°8.077 2°32.975 239.2 1.1 86 17.7
2004-04-05 10:10:33 51°8.078 2°33.018 218.5 1.7 89 17.7
2004-04-05 10:11:33 51°8.073 2°33.065 204.2 1.6 111 17.5
2004-04-05 10:12:33 51°8.049 2°33.076 240.1 1.1 199 17.2
2004-04-05 10:13:33 51°8.043 2°33.062 258.3 0.8 256 17
2004-04-05 10:14:33 51°8.045 2°33.06 269.2 0.8 42 17.1
2004-04-05 10:15:33 51°8.06 2°33.081 288.6 1.6 41 17.4
2004-04-05 10:16:33 51°8.084 2°33.108 304.2 1.8 31 17.6
2004-04-05 10:17:34 51°8.109 2°33.129 294.1 1.7 29 18
2004-04-05 10:18:33 51°8.132 2°33.146 287 1.3 15 18.2
2004-04-05 10:19:33 51°8.18 2°33.111 320.6 4.8 341 18.3
2004-04-05 10:20:33 51°8.282 2°33.089 357.8 7.3 9 19
2004-04-05 10:21:33 51°8.418 2°33.192 23.5 11.5 25 18
2004-04-05 10:22:33 51°8.621 2°33.345 31.4 14.2 30 18.6
2004-04-05 10:23:33 51°8.813 2°33.586 40.6 14.9 39 18.7
2004-04-05 10:24:34 51°9.009 2°33.836 37.7 14.9 42 18.7
2004-04-05 10:25:33 51°9.204 2°34.072 40.1 15.1 38 20.3
2004-04-05 10:26:33 51°9.402 2°34.316 39.1 15.1 39 21.3
2004-04-05 10:27:33 51°9.603 2°34.556 35.7 15 35 20.2
2004-04-05 10:28:34 51°9.806 2°34.8 36.3 15.1 38 17
2004-04-05 10:29:33 51°10.001 2°35.046 36.7 14.7 41 13.4
2004-04-05 10:30:33 51°10.197 2°35.291 36.5 14.9 39 13.5
2004-04-05 10:31:34 51°10.403 2°35.536 38.1 15.3 33 13.2
2004-04-05 10:32:33 51°10.6 2°35.768 40.6 15 40 12.7
2004-04-05 10:33:33 51°10.795 2°36.01 38 14.9 36 13.4
2004-04-05 10:34:33 51°10.993 2°36.249 37.7 15 37 13.8
2004-04-05 10:35:33 51°11.193 2°36.487 40.4 14.9 41 14
2004-04-05 10:36:33 51°11.392 2°36.728 37.2 14.7 35 14.7
2004-04-05 10:37:33 51°11.589 2°36.965 38.9 14.8 37 14.8
2004-04-05 10:38:33 51°11.793 2°37.181 29.1 14.6 29 15
2004-04-05 10:39:33 51°12.011 2°37.363 29.9 14.9 30 15
2004-04-05 10:40:33 51°12.222 2°37.576 34.1 15 37 15
2004-04-05 10:41:33 51°12.43 2°37.787 32.1 14.7 31 14.9
2004-04-05 10:42:33 51°12.637 2°38.003 34.3 14.9 35 15.3
2004-04-05 10:43:33 51°12.844 2°38.221 35.5 15.2 34 15.7
2004-04-05 10:44:33 51°13.055 2°38.433 33.3 14.8 33 16.5
2004-04-05 10:45:33 51°13.255 2°38.657 37.1 15 40 17
2004-04-05 10:46:34 51°13.468 2°38.831 21 14.1 11 16.2
2004-04-05 10:47:33 51°13.691 2°38.927 13.3 14 17 17
2004-04-05 10:48:33 51°13.918 2°38.994 7 13.8 4 15.8
2004-04-05 10:49:33 51°14.136 2°38.952 337.4 12.8 337 14.9
2004-04-05 10:50:33 51°14.318 2°38.79 326.9 12.7 329 18.9
2004-04-05 10:51:33 51°14.491 2°38.595 320 12.7 323 19.6
2004-04-05 10:52:33 51°14.649 2°38.376 313.6 12.2 313 18.6
2004-04-05 10:53:33 51°14.753 2°38.122 293.2 11.2 294 18.1
2004-04-05 10:54:33 51°14.81 2°37.85 284.8 9.4 286 14.7
2004-04-05 10:55:33 51°14.84 2°37.756 286.3 2.3 311 14.7
2004-04-05 10:56:34 51°14.864 2°37.746 289.5 1.3 2 14.9
2004-04-05 10:57:33 51°14.883 2°37.767 290 1.6 47 14
2004-04-05 10:58:33 51°14.903 2°37.81 296.1 2 53 14.3
2004-04-05 10:59:33 51°14.928 2°37.842 299.6 1.7 10 13.6
2004-04-05 11:00:33 51°14.978 2°37.825 320.2 4.1 347 14.2
2004-04-05 11:01:33 51°15.04 2°37.799 318.3 3.7 349 13.6
2004-04-05 11:02:33 51°15.102 2°37.774 320.5 4.1 348 13.5
2004-04-05 11:03:33 51°15.167 2°37.769 333 3.9 3 13.6
2004-04-05 11:04:33 51°15.231 2°37.777 336.6 3.7 8 13.2
2004-04-05 11:05:33 51°15.289 2°37.792 334.5 3.3 7 12.9
2004-04-05 11:06:33 51°15.345 2°37.808 336.8 3.6 11 13.4
2004-04-05 11:07:33 51°15.403 2°37.827 338.9 3.6 13 13.3
2004-04-05 11:08:33 51°15.463 2°37.858 352.7 4 21 12.5
2004-04-05 11:09:34 51°15.528 2°37.908 358.9 4.6 30 13.4
2004-04-05 11:10:33 51°15.582 2°37.952 354.1 3.6 32 13.5
2004-04-05 11:11:33 51°15.627 2°38 352.7 3.2 38 13.2
2004-04-05 11:12:33 51°15.667 2°38.048 348.6 2.9 37 13.4
2004-04-05 11:13:33 51°15.709 2°38.091 347.4 3 29 13.3
2004-04-05 11:14:33 51°15.754 2°38.128 341.7 3.2 20 14
2004-04-05 11:15:33 51°15.808 2°38.157 345.4 3.7 20 13
2004-04-05 11:16:33 51°15.868 2°38.193 352 3.9 21 13.5
2004-04-05 11:17:33 51°15.927 2°38.225 348.3 3.6 17 13.1
2004-04-05 11:18:34 51°15.984 2°38.262 346.6 3.8 27 12.9
2004-04-05 11:19:33 51°16.037 2°38.293 345.2 3.8 23 12.9
2004-04-05 11:20:33 51°16.093 2°38.324 344 3.6 17 13
2004-04-05 11:21:33 51°16.15 2°38.357 352.4 3.9 21 12.7
2004-04-05 11:22:33 51°16.206 2°38.394 346.5 3.6 22 12.3
2004-04-05 11:23:33 51°16.261 2°38.425 342.8 3.4 19 12.6
2004-04-05 11:24:33 51°16.315 2°38.455 342 3.6 21 12.5
2004-04-05 11:25:33 51°16.369 2°38.48 337.9 3.6 20 12.8
2004-04-05 11:26:33 51°16.424 2°38.507 341.6 3.4 20 12.2
2004-04-05 11:27:33 51°16.48 2°38.543 349.1 3.7 22 11.6
2004-04-05 11:28:33 51°16.538 2°38.583 346.9 3.7 25 12.6
2004-04-05 11:29:33 51°16.595 2°38.618 340.1 3.6 22 12
2004-04-05 11:30:33 51°16.647 2°38.643 332.5 3.1 15 12.8
2004-04-05 11:31:33 51°16.697 2°38.668 333.4 3.2 19 12.2
2004-04-05 11:32:33 51°16.746 2°38.698 334.4 3.3 21 12.7
2004-04-05 11:33:33 51°16.797 2°38.73 337 3.5 21 12.7
2004-04-05 11:34:33 51°16.853 2°38.76 338.6 3.6 20 12.6
2004-04-05 11:35:33 51°16.913 2°38.808 3.4 4.6 36 12.9
2004-04-05 11:36:33 51°16.975 2°38.895 24.5 5.1 43 13.4
2004-04-05 11:37:33 51°17.033 2°38.999 35.1 5.3 48 13.5
2004-04-05 11:38:33 51°17.08 2°39.128 66.1 5.7 69 13.2
2004-04-05 11:39:34 51°17.102 2°39.262 87.9 4.8 80 13.5
2004-04-05 11:40:33 51°17.109 2°39.376 104.6 4.2 84 14.9
2004-04-05 11:41:33 51°17.11 2°39.48 114.7 4 92 15.9
2004-04-05 11:42:33 51°17.128 2°39.603 60.2 5.1 59 17
2004-04-05 11:43:33 51°17.19 2°39.669 345.4 3.8 10 16
2004-04-05 11:44:33 51°17.262 2°39.669 332 4.7 354 16.6
2004-04-05 11:45:33 51°17.345 2°39.653 331.1 5.1 353 15.8
2004-04-05 11:46:33 51°17.446 2°39.631 336 6.8 355 16.1
2004-04-05 11:47:33 51°17.571 2°39.632 348.9 7.9 1 19.2
2004-04-05 11:48:34 51°17.685 2°39.639 337.5 5.1 5 22.3
2004-04-05 11:49:33 51°17.739 2°39.667 332 2.8 43 22.7
2004-04-05 11:50:33 51°17.772 2°39.721 328.5 2.8 48 22.7
2004-04-05 11:51:33 51°17.801 2°39.778 326.3 2.8 54 22.8
2004-04-05 11:52:33 51°17.827 2°39.838 325.3 2.6 60 22.1
2004-04-05 11:53:33 51°17.852 2°39.901 327.8 2.7 60 22.4
2004-04-05 11:54:33 51°17.876 2°39.965 329.3 2.8 61 22.1
2004-04-05 11:55:33 51°17.901 2°40.029 329.6 3 54 20.9
2004-04-05 11:56:33 51°17.933 2°40.078 312.2 2.5 29 22.2
2004-04-05 11:57:33 51°17.961 2°40.086 268.9 0.9 3 21.9
2004-04-05 11:58:34 51°17.976 2°40.105 260.4 1.3 53 21.9
2004-04-05 11:59:33 51°17.991 2°40.134 261.6 1.4 47 21.3
2004-04-05 12:00:33 51°18.007 2°40.159 264 1.4 34 22.6
2004-04-05 12:01:33 51°18.024 2°40.177 262 1.1 38 22.7
2004-04-05 12:02:33 51°18.036 2°40.197 252.8 1.1 55 22
2004-04-05 12:03:34 51°18.046 2°40.22 253.5 0.9 45 22
2004-04-05 12:04:33 51°18.057 2°40.24 256.2 1.1 48 22.1
2004-04-05 12:05:33 51°18.068 2°40.259 254.4 1.1 50 21.9
2004-04-05 12:06:33 51°18.08 2°40.281 260.3 1 35 21.9
2004-04-05 12:07:33 51°18.094 2°40.299 263.6 1 46 21.5
2004-04-05 12:08:33 51°18.112 2°40.316 278.6 1.5 16 21.5
2004-04-05 12:09:33 51°18.14 2°40.327 291 1.8 7 21.4
2004-04-05 12:10:33 51°18.175 2°40.334 302 2.3 7 21.5
2004-04-05 12:11:34 51°18.226 2°40.352 334.5 3.8 16 18.7
2004-04-05 12:12:33 51°18.305 2°40.408 26.6 6.2 38 20.5
2004-04-05 12:13:34 51°18.342 2°40.573 97.3 6.9 87 21.3
2004-04-05 12:14:33 51°18.322 2°40.773 125.1 8.3 109 20.8
2004-04-05 12:15:33 51°18.267 2°40.988 130.2 9.3 115 20.2
2004-04-05 12:16:33 51°18.197 2°41.223 131.5 9.9 114 21.6
2004-04-05 12:17:33 51°18.123 2°41.455 130.9 10 114 25.4
2004-04-05 12:18:34 51°18.047 2°41.689 131 9.8 115 26.5
2004-04-05 12:19:33 51°17.967 2°41.93 130.4 11.1 122 27.1
2004-04-05 12:20:33 51°17.877 2°42.199 131.2 11.8 118 27.4
2004-04-05 12:21:34 51°17.778 2°42.467 135.7 11.4 119 26.4
2004-04-05 12:22:34 51°17.684 2°42.732 135 11.6 119 24.9
2004-04-05 12:23:33 51°17.591 2°42.996 136.9 11.3 122 15.3
2004-04-05 12:24:34 51°17.479 2°43.252 139.8 11.6 127 14.4
2004-04-05 12:25:34 51°17.36 2°43.514 140.4 13.5 128 17.8
2004-04-05 12:26:34 51°17.218 2°43.809 137.9 14.1 123 18.4
2004-04-05 12:27:33 51°17.077 2°44.101 135.7 14 130 18.6
2004-04-05 12:28:34 51°16.934 2°44.399 138.2 13.4 124 18.5
2004-04-05 12:29:34 51°16.804 2°44.703 135.3 13.7 121 16.7
2004-04-05 12:30:33 51°16.674 2°45.005 134.3 14.4 127 12.9
2004-04-05 12:31:34 51°16.534 2°45.308 136.5 13.8 127 15
2004-04-05 12:32:34 51°16.411 2°45.627 129.7 14.4 116 14
2004-04-05 12:33:34 51°16.302 2°45.966 129.5 13.5 120 13.1
2004-04-05 12:34:33 51°16.21 2°46.31 119.5 14.1 109 14.2
2004-04-05 12:35:34 51°16.128 2°46.68 122.8 14.4 111 16.7
2004-04-05 12:36:34 51°16.052 2°47.055 119.3 14.6 107 18.8
2004-04-05 12:37:33 51°15.969 2°47.421 120.6 14.9 112 19
2004-04-05 12:38:33 51°15.88 2°47.79 120.3 14.9 114 18.4
2004-04-05 12:39:34 51°15.812 2°48.179 116.3 14.8 105 16.5
2004-04-05 12:40:34 51°15.764 2°48.567 105.9 15.1 98 14.9
2004-04-05 12:41:33 51°15.717 2°48.949 110.5 14.7 103 13.9
2004-04-05 12:42:34 51°15.673 2°49.342 109.5 14.9 102 14.4
2004-04-05 12:43:33 51°15.631 2°49.731 110.8 15.1 101 16
2004-04-05 12:44:34 51°15.591 2°50.139 106 15.4 97 16.2
2004-04-05 12:45:33 51°15.562 2°50.533 104.9 15.4 96 16.2
2004-04-05 12:46:33 51°15.529 2°50.933 107.2 15.6 98 16
2004-04-05 12:47:33 51°15.493 2°51.329 110.3 14.6 99 15.9
2004-04-05 12:48:34 51°15.429 2°51.711 120.7 14.2 111 15.6
2004-04-05 12:49:33 51°15.349 2°52.076 121.7 14.7 112 15.3
2004-04-05 12:50:33 51°15.263 2°52.443 120.3 14.9 110 14.6
2004-04-05 12:51:34 51°15.17 2°52.813 119.7 15 113 13.8
2004-04-05 12:52:33 51°15.087 2°53.167 117.2 14.6 105 13.1
2004-04-05 12:53:34 51°15.01 2°53.532 118.2 14.4 108 13.1
2004-04-05 12:54:33 51°14.893 2°53.849 140.1 13.6 129 12.7
2004-04-05 12:55:33 51°14.742 2°54.131 138.4 13.9 127 13.4
2004-04-05 12:56:33 51°14.599 2°54.435 135.3 14 123 13.5
2004-04-05 12:57:34 51°14.469 2°54.761 129.3 14.5 121 13.7
2004-04-05 12:58:33 51°14.361 2°55.08 129.5 13.2 121 14